createdAt,value
2022-07-28T00:00:00.515Z,13.62
2022-07-28T00:02:27.632Z,13.67
2022-07-28T00:04:54.832Z,13.65
2022-07-28T00:07:21.926Z,13.64
2022-07-28T00:09:48.914Z,13.59
2022-07-28T00:12:16.076Z,13.57
2022-07-28T00:14:43.023Z,13.49
2022-07-28T00:17:10.182Z,13.45
2022-07-28T00:19:37.245Z,13.40
2022-07-28T00:22:04.637Z,13.34
2022-07-28T00:24:31.804Z,13.26
2022-07-28T00:26:59.924Z,13.18
2022-07-28T00:29:50.011Z,13.09
2022-07-28T00:32:14.127Z,12.99
2022-07-28T00:34:41.219Z,12.93
2022-07-28T00:37:13.288Z,12.88
2022-07-28T00:39:41.907Z,12.85
2022-07-28T00:42:09.398Z,12.82
2022-07-28T00:44:36.527Z,12.79
2022-07-28T00:47:03.556Z,12.75
2022-07-28T00:49:30.648Z,12.73
2022-07-28T00:51:57.841Z,12.75
2022-07-28T00:54:24.834Z,12.74
2022-07-28T00:56:51.774Z,12.73
2022-07-28T00:59:18.757Z,12.69
2022-07-28T01:01:46.311Z,12.65
2022-07-28T01:04:13.897Z,12.61
2022-07-28T01:07:32.811Z,12.56
2022-07-28T01:10:18.463Z,12.49
2022-07-28T01:13:07.710Z,12.41
2022-07-28T01:15:56.000Z,12.43
2022-07-28T01:18:30.124Z,12.42
2022-07-28T01:21:12.316Z,12.42
2022-07-28T01:24:22.616Z,12.41
2022-07-28T01:27:06.312Z,12.41
2022-07-28T01:30:03.422Z,12.37
2022-07-28T01:32:46.486Z,12.25
2022-07-28T01:35:23.176Z,12.07
2022-07-28T01:37:54.968Z,11.93
2022-07-28T01:40:26.421Z,11.80
2022-07-28T01:43:00.207Z,11.72
2022-07-28T01:45:28.417Z,11.70
2022-07-28T01:47:59.495Z,11.71
2022-07-28T01:50:28.176Z,11.76
2022-07-28T01:52:56.923Z,11.77
2022-07-28T01:55:25.981Z,11.69
2022-07-28T01:57:55.709Z,11.75
2022-07-28T02:00:24.908Z,11.76
2022-07-28T02:02:54.440Z,11.78
2022-07-28T02:05:23.638Z,11.76
2022-07-28T02:07:53.648Z,11.75
2022-07-28T02:10:22.469Z,11.77
2022-07-28T02:12:50.404Z,11.79
2022-07-28T02:15:19.429Z,11.79
2022-07-28T02:17:48.428Z,11.73
2022-07-28T02:20:18.081Z,11.70
2022-07-28T02:22:51.656Z,11.71
2022-07-28T02:25:20.929Z,11.68
2022-07-28T02:28:00.203Z,11.70
2022-07-28T02:30:38.013Z,11.69
2022-07-28T02:33:15.226Z,11.63
2022-07-28T02:35:53.000Z,11.62
2022-07-28T02:38:46.351Z,11.61
2022-07-28T02:41:22.644Z,11.59
2022-07-28T02:43:52.993Z,11.59
2022-07-28T02:46:26.029Z,11.52
2022-07-28T02:49:00.768Z,11.50
2022-07-28T02:51:29.479Z,11.50
2022-07-28T02:53:58.397Z,11.51
2022-07-28T02:56:26.536Z,11.49
2022-07-28T02:58:55.613Z,11.45
2022-07-28T03:01:22.975Z,11.44
2022-07-28T03:03:51.122Z,11.43
2022-07-28T03:06:28.592Z,11.41
2022-07-28T03:08:57.367Z,11.40
2022-07-28T03:11:24.693Z,11.39
2022-07-28T03:13:51.698Z,11.36
2022-07-28T03:16:18.761Z,11.35
2022-07-28T03:18:45.782Z,11.34
2022-07-28T03:21:12.781Z,11.37
2022-07-28T03:23:45.781Z,11.38
2022-07-28T03:26:37.240Z,11.37
2022-07-28T03:29:05.633Z,11.37
2022-07-28T03:31:34.073Z,11.32
2022-07-28T03:34:01.607Z,11.33
2022-07-28T03:36:40.077Z,11.36
2022-07-28T03:39:11.766Z,11.34
2022-07-28T03:41:41.204Z,11.35
2022-07-28T03:44:11.039Z,11.37
2022-07-28T03:46:47.633Z,11.35
2022-07-28T03:49:14.667Z,11.36
2022-07-28T03:51:41.794Z,11.33
2022-07-28T03:54:09.165Z,11.39
2022-07-28T03:56:36.056Z,11.37
2022-07-28T03:59:03.041Z,11.27
2022-07-28T04:01:30.058Z,11.22
2022-07-28T04:03:57.594Z,11.16
2022-07-28T04:06:24.657Z,11.13
2022-07-28T04:08:51.933Z,11.10
2022-07-28T04:11:18.830Z,11.11
2022-07-28T04:13:45.952Z,11.17
2022-07-28T04:16:12.998Z,11.19
2022-07-28T04:18:40.007Z,11.22
2022-07-28T04:21:07.012Z,11.25
2022-07-28T04:23:34.089Z,11.29
2022-07-28T04:26:01.014Z,11.29
2022-07-28T04:28:27.951Z,11.32
2022-07-28T04:30:54.972Z,11.33
2022-07-28T04:33:22.088Z,11.35
2022-07-28T04:35:49.053Z,11.25
2022-07-28T04:38:17.994Z,11.21
2022-07-28T04:40:45.608Z,11.16
2022-07-28T04:43:12.995Z,11.13
2022-07-28T04:45:41.116Z,11.09
2022-07-28T04:48:14.191Z,11.07
2022-07-28T04:50:45.541Z,11.10
2022-07-28T04:53:12.951Z,11.13
2022-07-28T04:55:40.129Z,11.16
2022-07-28T04:58:07.710Z,11.18
2022-07-28T05:00:36.499Z,11.23
2022-07-28T05:03:04.290Z,11.26
2022-07-28T05:05:31.717Z,11.31
2022-07-28T05:07:59.076Z,11.32
2022-07-28T05:10:26.008Z,11.34
2022-07-28T05:12:54.633Z,11.36
2022-07-28T05:15:21.665Z,11.42
2022-07-28T05:17:50.205Z,11.47
2022-07-28T05:20:17.438Z,11.49
2022-07-28T05:22:53.722Z,11.52
2022-07-28T05:25:23.687Z,11.60
2022-07-28T05:27:53.065Z,11.64
2022-07-28T05:30:21.004Z,11.74
2022-07-28T05:32:49.551Z,11.85
2022-07-28T05:35:17.096Z,11.95
2022-07-28T05:37:44.207Z,12.00
2022-07-28T05:40:14.840Z,12.12
2022-07-28T05:42:43.062Z,12.21
2022-07-28T05:45:16.511Z,12.39
2022-07-28T05:47:52.190Z,12.64
2022-07-28T05:50:26.023Z,12.87
2022-07-28T05:52:53.030Z,13.12
2022-07-28T05:55:20.026Z,13.36
2022-07-28T05:57:47.200Z,13.61
2022-07-28T06:00:18.715Z,13.85
2022-07-28T06:02:49.131Z,14.15
2022-07-28T06:05:18.714Z,14.39
2022-07-28T06:07:47.448Z,14.66
2022-07-28T06:10:18.180Z,14.92
2022-07-28T06:12:48.306Z,15.17
2022-07-28T06:15:22.402Z,15.36
2022-07-28T06:17:55.222Z,15.57
2022-07-28T06:20:23.840Z,15.76
2022-07-28T06:22:53.710Z,15.95
2022-07-28T06:25:27.280Z,16.18
2022-07-28T06:27:58.480Z,16.40
2022-07-28T06:30:26.026Z,16.58
2022-07-28T06:32:53.443Z,16.76
2022-07-28T06:35:21.023Z,16.79
2022-07-28T06:37:50.693Z,16.72
2022-07-28T06:40:20.135Z,16.73
2022-07-28T06:42:47.663Z,16.84
2022-07-28T06:45:19.722Z,17.06
2022-07-28T06:47:49.040Z,17.32
2022-07-28T06:50:25.954Z,17.39
2022-07-28T06:52:59.185Z,17.57
2022-07-28T06:55:28.462Z,17.70
2022-07-28T06:58:06.242Z,17.81
2022-07-28T07:00:33.508Z,17.94
2022-07-28T07:03:01.185Z,18.01
2022-07-28T07:05:32.033Z,18.01
2022-07-28T07:07:59.551Z,18.02
2022-07-28T07:10:26.729Z,17.97
2022-07-28T07:12:53.979Z,18.01
2022-07-28T07:15:20.884Z,18.25
2022-07-28T07:17:47.913Z,18.61
2022-07-28T07:20:17.165Z,19.06
2022-07-28T07:22:47.403Z,19.49
2022-07-28T07:25:17.295Z,19.71
2022-07-28T07:27:45.734Z,19.78
2022-07-28T07:30:14.596Z,19.89
2022-07-28T07:32:42.188Z,20.02
2022-07-28T07:35:09.813Z,20.16
2022-07-28T07:37:36.762Z,20.28
2022-07-28T07:40:05.845Z,20.28
2022-07-28T07:42:33.272Z,20.16
2022-07-28T07:45:00.355Z,20.11
2022-07-28T07:47:27.837Z,20.05
2022-07-28T07:49:54.831Z,19.92
2022-07-28T07:52:21.895Z,19.86
2022-07-28T07:54:48.863Z,19.76
2022-07-28T07:57:15.905Z,19.78
2022-07-28T07:59:42.911Z,19.81
2022-07-28T08:02:09.999Z,19.97
2022-07-28T08:04:38.571Z,20.05
2022-07-28T08:07:07.370Z,20.09
2022-07-28T08:09:34.898Z,20.25
2022-07-28T08:12:02.433Z,20.39
2022-07-28T08:14:29.491Z,20.55
2022-07-28T08:16:58.485Z,20.65
2022-07-28T08:19:26.321Z,20.62
2022-07-28T08:21:55.328Z,20.53
2022-07-28T08:24:32.435Z,20.55
2022-07-28T08:27:02.204Z,20.77
2022-07-28T08:29:29.440Z,21.12
2022-07-28T08:31:57.218Z,21.23
2022-07-28T08:34:31.201Z,21.17
2022-07-28T08:37:03.185Z,21.26
2022-07-28T08:39:34.887Z,21.31
2022-07-28T08:42:07.098Z,21.46
2022-07-28T08:44:47.895Z,21.57
2022-07-28T08:47:16.709Z,21.69
2022-07-28T08:49:43.946Z,21.86
2022-07-28T08:52:13.710Z,21.88
2022-07-28T08:54:48.835Z,22.00
2022-07-28T08:57:29.640Z,22.02
2022-07-28T08:59:56.816Z,22.17
2022-07-28T09:02:29.041Z,22.28
2022-07-28T09:04:57.830Z,22.39
2022-07-28T09:07:25.539Z,22.52
2022-07-28T09:09:52.653Z,22.30
2022-07-28T09:12:27.194Z,22.10
2022-07-28T09:14:54.786Z,22.03
2022-07-28T09:17:21.704Z,22.10
2022-07-28T09:19:48.778Z,22.23
2022-07-28T09:22:15.737Z,22.26
2022-07-28T09:24:46.616Z,22.25
2022-07-28T09:27:18.103Z,22.41
2022-07-28T09:29:48.598Z,22.64
2022-07-28T09:32:17.159Z,22.88
2022-07-28T09:34:51.748Z,22.97
2022-07-28T09:37:27.627Z,23.27
2022-07-28T09:40:03.813Z,23.64
2022-07-28T09:42:46.847Z,23.97
2022-07-28T09:45:23.022Z,24.19
2022-07-28T09:48:10.317Z,24.40
2022-07-28T09:50:42.269Z,24.54
2022-07-28T09:53:22.906Z,24.70
2022-07-28T09:56:02.807Z,24.61
2022-07-28T09:58:30.904Z,24.45
2022-07-28T10:01:10.890Z,24.41
2022-07-28T10:03:42.851Z,24.46
2022-07-28T10:06:16.867Z,24.47
2022-07-28T10:08:49.506Z,24.60
2022-07-28T10:11:24.698Z,24.77
2022-07-28T10:14:06.514Z,24.56
2022-07-28T10:16:53.347Z,24.45
2022-07-28T10:19:20.513Z,24.44
2022-07-28T10:21:50.004Z,24.57
2022-07-28T10:24:24.151Z,24.85
2022-07-28T10:26:52.694Z,25.08
2022-07-28T10:29:22.419Z,25.08
2022-07-28T10:31:55.530Z,25.04
2022-07-28T10:34:39.316Z,25.16
2022-07-28T10:37:10.528Z,25.25
2022-07-28T10:39:45.105Z,25.29
2022-07-28T10:42:12.619Z,25.35
2022-07-28T10:44:41.555Z,25.37
2022-07-28T10:47:18.607Z,25.36
2022-07-28T10:49:48.969Z,25.53
2022-07-28T10:55:49.465Z,25.88
2022-07-28T10:58:46.459Z,25.61
2022-07-28T11:01:51.268Z,24.95
2022-07-28T11:04:49.134Z,24.44
2022-07-28T11:07:18.548Z,24.50
2022-07-28T11:09:49.707Z,24.80
2022-07-28T11:12:47.427Z,24.94
2022-07-28T11:15:36.632Z,24.92
2022-07-28T11:18:08.831Z,25.31
2022-07-28T11:20:56.407Z,25.57
2022-07-28T11:23:47.580Z,25.54
2022-07-28T11:26:36.533Z,25.74
2022-07-28T11:29:03.923Z,26.02
2022-07-28T11:31:48.916Z,26.30
2022-07-28T11:34:21.264Z,26.40
2022-07-28T11:37:07.845Z,26.43
2022-07-28T11:39:43.822Z,26.38
2022-07-28T11:42:35.764Z,26.61
2022-07-28T11:45:37.769Z,26.64
2022-07-28T11:48:18.902Z,26.59
2022-07-28T11:51:04.312Z,26.43
2022-07-28T11:53:38.507Z,26.36
2022-07-28T11:56:10.691Z,26.39
2022-07-28T11:58:39.269Z,26.46
2022-07-28T12:01:17.790Z,26.49
2022-07-28T12:03:55.254Z,26.61
2022-07-28T12:06:27.356Z,26.93
2022-07-28T12:09:04.167Z,26.93
2022-07-28T12:11:41.099Z,26.88
2022-07-28T12:14:16.125Z,27.03
2022-07-28T12:16:46.268Z,27.11
2022-07-28T12:19:18.999Z,27.27
2022-07-28T12:21:53.129Z,27.53
2022-07-28T12:24:30.899Z,27.87
2022-07-28T12:27:00.237Z,27.59
2022-07-28T12:29:35.912Z,27.33
2022-07-28T12:32:08.992Z,27.39
2022-07-28T12:34:37.724Z,27.64
2022-07-28T12:37:06.466Z,27.86
2022-07-28T12:39:36.863Z,28.06
2022-07-28T12:42:08.841Z,28.35
2022-07-28T12:44:48.091Z,28.60
2022-07-28T12:47:25.965Z,28.70
2022-07-28T12:50:16.636Z,28.81
2022-07-28T12:53:01.229Z,28.71
2022-07-28T12:55:30.621Z,28.66
2022-07-28T12:57:58.117Z,28.56
2022-07-28T13:00:34.059Z,28.30
2022-07-28T13:03:20.737Z,27.67
2022-07-28T13:06:03.391Z,27.47
2022-07-28T13:08:46.661Z,27.52
2022-07-28T13:14:03.479Z,27.52
2022-07-28T13:16:30.549Z,27.26
2022-07-28T13:19:03.982Z,27.13
2022-07-28T13:21:58.681Z,27.29
2022-07-28T13:24:28.280Z,27.61
2022-07-28T13:26:56.390Z,27.77
2022-07-28T13:29:23.795Z,27.81
2022-07-28T13:31:50.899Z,27.65
2022-07-28T13:34:18.223Z,27.66
2022-07-28T13:36:45.403Z,27.66
2022-07-28T13:39:14.025Z,27.56
2022-07-28T13:41:56.114Z,27.64
2022-07-28T13:44:27.228Z,27.93
2022-07-28T13:46:55.244Z,27.98
2022-07-28T13:49:23.452Z,27.96
2022-07-28T13:51:51.487Z,28.16
2022-07-28T13:54:20.535Z,28.26
2022-07-28T13:56:48.331Z,28.27
2022-07-28T13:59:15.318Z,28.26
2022-07-28T14:01:42.583Z,28.35
2022-07-28T14:04:14.982Z,28.36
2022-07-28T14:06:45.318Z,28.30
2022-07-28T14:09:17.820Z,28.34
2022-07-28T14:11:49.746Z,28.46
2022-07-28T14:14:23.867Z,28.44
2022-07-28T14:16:55.028Z,28.15
2022-07-28T14:19:39.566Z,27.66
2022-07-28T14:22:13.229Z,27.27
2022-07-28T14:24:44.414Z,27.21
2022-07-28T14:27:11.557Z,27.39
2022-07-28T14:29:39.421Z,27.66
2022-07-28T14:32:06.761Z,27.72
2022-07-28T14:34:34.399Z,27.87
2022-07-28T14:37:03.436Z,27.82
2022-07-28T14:39:37.013Z,27.68
2022-07-28T14:42:04.979Z,27.63
2022-07-28T14:44:31.979Z,27.68
2022-07-28T14:46:59.238Z,27.73
2022-07-28T14:49:26.351Z,27.73
2022-07-28T14:51:53.544Z,27.65
2022-07-28T14:54:20.651Z,27.57
2022-07-28T14:56:47.554Z,27.59
2022-07-28T14:59:14.525Z,27.67
2022-07-28T15:01:41.558Z,27.69
2022-07-28T15:04:10.182Z,27.78
2022-07-28T15:06:37.158Z,27.78
2022-07-28T15:09:04.504Z,27.67
2022-07-28T15:11:31.495Z,27.56
2022-07-28T15:13:59.474Z,27.30
2022-07-28T15:16:26.562Z,27.27
2022-07-28T15:18:54.236Z,27.36
2022-07-28T15:21:21.281Z,27.36
2022-07-28T15:23:48.507Z,27.34
2022-07-28T15:26:15.523Z,27.33
2022-07-28T15:28:42.570Z,27.20
2022-07-28T15:31:09.589Z,26.94
2022-07-28T15:33:39.977Z,26.76
2022-07-28T15:36:15.028Z,26.76
2022-07-28T15:38:41.926Z,26.77
2022-07-28T15:41:15.052Z,26.75
2022-07-28T15:43:42.282Z,26.63
2022-07-28T15:46:12.927Z,26.47
2022-07-28T15:48:44.007Z,26.30
2022-07-28T15:51:11.735Z,26.24
2022-07-28T15:53:39.397Z,26.24
2022-07-28T15:56:06.523Z,26.40
2022-07-28T15:58:33.789Z,26.52
2022-07-28T16:01:01.781Z,26.53
2022-07-28T16:03:30.291Z,26.39
2022-07-28T16:05:58.669Z,26.32
2022-07-28T16:08:26.371Z,26.19
2022-07-28T16:10:54.618Z,26.13
2022-07-28T16:13:36.013Z,26.25
2022-07-28T16:16:12.903Z,26.34
2022-07-28T16:18:42.924Z,26.30
2022-07-28T16:21:10.763Z,26.34
2022-07-28T16:23:38.238Z,26.34
2022-07-28T16:26:07.745Z,26.28
2022-07-28T16:28:35.635Z,26.30
2022-07-28T16:31:02.829Z,26.36
2022-07-28T16:33:33.580Z,26.38
2022-07-28T16:36:02.031Z,26.38
2022-07-28T16:38:29.159Z,26.40
2022-07-28T16:40:57.099Z,26.45
2022-07-28T16:43:24.462Z,26.54
2022-07-28T16:45:51.480Z,26.57
2022-07-28T16:48:18.436Z,26.55
2022-07-28T16:50:46.171Z,26.53
2022-07-28T16:53:14.157Z,26.38
2022-07-28T16:55:45.360Z,26.26
2022-07-28T16:58:12.419Z,26.19
2022-07-28T17:00:39.352Z,26.19
2022-07-28T17:03:06.461Z,26.16
2022-07-28T17:05:33.447Z,26.20
2022-07-28T17:08:00.401Z,26.18
2022-07-28T17:10:27.816Z,26.19
2022-07-28T17:12:55.227Z,26.20
2022-07-28T17:15:23.555Z,26.14
2022-07-28T17:17:52.155Z,26.08
2022-07-28T17:20:20.832Z,25.98
2022-07-28T17:22:48.123Z,25.84
2022-07-28T17:25:47.281Z,25.80
2022-07-28T17:28:04.386Z,25.74
2022-07-28T17:30:33.003Z,25.66
2022-07-28T17:33:07.707Z,25.60
2022-07-28T17:35:36.602Z,25.48
2022-07-28T17:38:07.250Z,25.42
2022-07-28T17:40:34.292Z,25.35
2022-07-28T17:43:01.507Z,25.31
2022-07-28T17:45:28.491Z,25.28
2022-07-28T17:47:55.380Z,25.27
2022-07-28T17:50:22.362Z,25.17
2022-07-28T17:52:49.284Z,25.18
2022-07-28T17:55:57.996Z,25.11
2022-07-28T17:58:29.107Z,24.98
2022-07-28T18:01:10.027Z,24.89
2022-07-28T18:03:57.608Z,24.83
2022-07-28T18:06:34.483Z,24.75
2022-07-28T18:09:10.492Z,24.66
2022-07-28T18:11:57.045Z,24.55
2022-07-28T18:14:29.840Z,24.53
2022-07-28T18:16:57.942Z,24.42
2022-07-28T18:19:26.326Z,24.26
2022-07-28T18:21:53.622Z,24.17
2022-07-28T18:24:22.412Z,24.10
2022-07-28T18:26:51.612Z,24.04
2022-07-28T18:29:20.274Z,23.95
2022-07-28T18:31:48.894Z,23.87
2022-07-28T18:34:16.360Z,23.73
2022-07-28T18:36:43.829Z,23.70
2022-07-28T18:39:11.016Z,23.64
2022-07-28T18:41:46.933Z,23.61
2022-07-28T18:44:17.232Z,23.57
2022-07-28T18:46:44.663Z,23.49
2022-07-28T18:49:12.081Z,23.41
2022-07-28T18:51:39.045Z,23.35
2022-07-28T18:54:06.814Z,23.29
2022-07-28T18:56:33.728Z,23.26
2022-07-28T18:59:00.724Z,23.20
2022-07-28T19:01:27.701Z,23.15
2022-07-28T19:03:54.747Z,23.09
2022-07-28T19:06:21.685Z,23.05
2022-07-28T19:08:48.767Z,22.98
2022-07-28T19:11:19.631Z,22.90
2022-07-28T19:13:47.791Z,22.83
2022-07-28T19:16:15.023Z,22.71
2022-07-28T19:18:42.109Z,22.67
2022-07-28T19:21:09.322Z,22.62
2022-07-28T19:23:36.348Z,22.52
2022-07-28T19:26:03.772Z,22.47
2022-07-28T19:28:30.823Z,22.39
2022-07-28T19:30:58.682Z,22.32
2022-07-28T19:33:26.371Z,22.30
2022-07-28T19:35:53.461Z,22.23
2022-07-28T19:38:20.632Z,22.13
2022-07-28T19:40:47.613Z,22.11
2022-07-28T19:43:14.660Z,22.03
2022-07-28T19:45:41.666Z,21.92
2022-07-28T19:48:08.784Z,21.81
2022-07-28T19:50:38.573Z,21.73
2022-07-28T19:53:05.784Z,21.62
2022-07-28T19:55:40.133Z,21.52
2022-07-28T19:58:07.264Z,21.40
2022-07-28T20:00:34.408Z,21.33
2022-07-28T20:03:01.508Z,21.25
2022-07-28T20:05:28.524Z,21.14
2022-07-28T20:07:55.820Z,21.05
2022-07-28T20:10:22.836Z,20.96
2022-07-28T20:12:49.780Z,20.92
2022-07-28T20:15:16.768Z,20.85
2022-07-28T20:17:43.727Z,20.79
2022-07-28T20:20:13.222Z,20.72
2022-07-28T20:22:41.416Z,20.67
2022-07-28T20:25:10.375Z,20.60
2022-07-28T20:27:40.464Z,20.55
2022-07-28T20:30:10.314Z,20.48
2022-07-28T20:32:38.385Z,20.42
2022-07-28T20:35:09.295Z,20.37
2022-07-28T20:37:37.677Z,20.29
2022-07-28T20:40:06.772Z,20.24
2022-07-28T20:42:33.963Z,20.19
2022-07-28T20:45:01.136Z,20.15
2022-07-28T20:47:28.260Z,20.11
2022-07-28T20:49:55.415Z,20.08
2022-07-28T20:52:23.436Z,20.04
2022-07-28T20:54:54.220Z,20.00
2022-07-28T20:57:22.681Z,19.95
2022-07-28T20:59:51.292Z,19.87
2022-07-28T21:02:21.998Z,19.79
2022-07-28T21:04:50.578Z,19.77
2022-07-28T21:08:00.441Z,19.72
2022-07-28T21:10:07.971Z,19.65
2022-07-28T21:12:36.962Z,19.63
2022-07-28T21:15:05.890Z,19.58
2022-07-28T21:17:33.084Z,19.53
2022-07-28T21:20:00.272Z,19.46
2022-07-28T21:22:27.331Z,19.41
2022-07-28T21:24:55.659Z,19.35
2022-07-28T21:27:23.756Z,19.31
2022-07-28T21:32:18.648Z,19.15
2022-07-28T21:34:45.805Z,19.15
2022-07-28T21:37:13.641Z,19.12
2022-07-28T21:39:41.014Z,19.09
2022-07-28T21:42:09.028Z,19.03
2022-07-28T21:44:37.459Z,18.98
2022-07-28T21:47:05.003Z,18.91
2022-07-28T21:49:32.313Z,18.93
2022-07-28T21:51:59.665Z,18.89
2022-07-28T21:54:27.052Z,18.87
2022-07-28T21:56:53.986Z,18.82
2022-07-28T21:59:21.191Z,18.79
2022-07-28T22:01:48.314Z,18.77
2022-07-28T22:04:15.941Z,18.68
2022-07-28T22:06:44.661Z,18.68
2022-07-28T22:09:14.550Z,18.60
2022-07-28T22:11:41.940Z,18.64
2022-07-28T22:14:09.110Z,18.62
2022-07-28T22:16:36.113Z,18.59
2022-07-28T22:19:03.803Z,18.56
2022-07-28T22:23:57.813Z,18.51
2022-07-28T22:26:24.798Z,18.50
2022-07-28T22:28:51.995Z,18.47
2022-07-28T22:31:19.001Z,18.41
2022-07-28T22:33:46.000Z,18.41
2022-07-28T22:36:12.951Z,18.41
2022-07-28T22:38:39.895Z,18.40
2022-07-28T22:41:06.967Z,18.38
2022-07-28T22:43:34.057Z,18.34
2022-07-28T22:46:01.314Z,18.31
2022-07-28T22:48:28.713Z,18.29
2022-07-28T22:50:55.794Z,18.21
2022-07-28T22:53:22.936Z,18.24
2022-07-28T22:55:49.888Z,18.22
2022-07-28T22:58:16.910Z,18.21
2022-07-28T23:00:44.128Z,18.20
2022-07-28T23:03:13.285Z,18.18
2022-07-28T23:05:40.542Z,18.19
2022-07-28T23:08:07.515Z,18.15
2022-07-28T23:10:34.857Z,18.16
2022-07-28T23:13:02.027Z,18.10
2022-07-28T23:15:40.797Z,18.11
2022-07-28T23:18:10.776Z,18.04
2022-07-28T23:20:38.999Z,18.04
2022-07-28T23:23:06.607Z,18.01
2022-07-28T23:25:36.285Z,17.96
2022-07-28T23:28:03.481Z,17.92
2022-07-28T23:30:30.378Z,17.89
2022-07-28T23:32:57.450Z,17.89
2022-07-28T23:35:24.659Z,17.84
2022-07-28T23:37:51.801Z,17.80
2022-07-28T23:40:18.704Z,17.76
2022-07-28T23:42:45.615Z,17.75
2022-07-28T23:45:12.632Z,17.75
2022-07-28T23:47:39.624Z,17.74
2022-07-28T23:50:07.001Z,17.73
2022-07-28T23:52:33.966Z,17.74
2022-07-28T23:55:00.877Z,17.72
2022-07-28T23:57:31.401Z,17.68
